createdAt,value
2017-09-10T00:00:11.549Z,13.50
2017-09-10T00:02:39.731Z,13.50
2017-09-10T00:05:07.165Z,13.50
2017-09-10T00:07:34.588Z,13.50
2017-09-10T00:10:02.076Z,13.50
2017-09-10T00:12:29.509Z,13.50
2017-09-10T00:14:56.942Z,13.40
2017-09-10T00:17:24.365Z,13.40
2017-09-10T00:19:52.633Z,13.40
2017-09-10T00:22:20.820Z,13.40
2017-09-10T00:24:49.019Z,13.40
2017-09-10T00:27:16.446Z,13.30
2017-09-10T00:29:44.641Z,13.30
2017-09-10T00:32:12.064Z,13.30
2017-09-10T00:34:40.278Z,13.30
2017-09-10T00:37:07.696Z,13.30
2017-09-10T00:39:35.136Z,13.40
2017-09-10T00:42:02.563Z,13.30
2017-09-10T00:44:30.009Z,13.30
2017-09-10T00:46:57.428Z,13.30
2017-09-10T00:49:25.624Z,13.20
2017-09-10T00:51:53.824Z,13.20
2017-09-10T00:54:21.251Z,13.20
2017-09-10T00:56:48.690Z,13.20
2017-09-10T00:59:16.113Z,13.20
2017-09-10T01:01:43.580Z,13.10
2017-09-10T01:04:11.012Z,13.20
2017-09-10T01:06:38.441Z,13.20
2017-09-10T01:09:05.864Z,13.20
2017-09-10T01:11:33.293Z,13.20
2017-09-10T01:14:00.719Z,13.20
2017-09-10T01:16:28.148Z,13.20
2017-09-10T01:18:56.353Z,13.10
2017-09-10T01:21:23.780Z,13.10
2017-09-10T01:23:51.972Z,13.10
2017-09-10T01:26:19.408Z,13.10
2017-09-10T01:28:47.595Z,13.10
2017-09-10T01:31:15.797Z,13.10
2017-09-10T01:33:43.214Z,13.10
2017-09-10T01:36:11.412Z,13.00
2017-09-10T01:38:38.832Z,13.00
2017-09-10T01:41:07.040Z,13.00
2017-09-10T01:43:34.456Z,13.00
2017-09-10T01:46:01.879Z,13.00
2017-09-10T01:48:29.309Z,13.00
2017-09-10T01:50:56.731Z,12.90
2017-09-10T01:53:24.157Z,12.90
2017-09-10T01:55:51.575Z,12.90
2017-09-10T01:58:19.004Z,12.70
2017-09-10T02:00:47.195Z,12.70
2017-09-10T02:03:14.624Z,12.70
2017-09-10T02:05:42.047Z,12.70
2017-09-10T02:08:09.480Z,12.70
2017-09-10T02:10:36.903Z,12.70
2017-09-10T02:13:04.332Z,12.80
2017-09-10T02:15:31.780Z,12.80
2017-09-10T02:17:59.204Z,12.80
2017-09-10T02:20:26.627Z,12.80
2017-09-10T02:22:54.060Z,12.70
2017-09-10T02:25:21.492Z,12.80
2017-09-10T02:27:48.920Z,12.80
2017-09-10T02:30:17.103Z,12.70
2017-09-10T02:32:44.543Z,12.70
2017-09-10T02:35:12.729Z,12.70
2017-09-10T02:37:40.919Z,12.60
2017-09-10T02:40:08.340Z,12.60
2017-09-10T02:42:36.527Z,12.40
2017-09-10T02:45:03.955Z,12.30
2017-09-10T02:47:31.380Z,12.40
2017-09-10T02:49:58.809Z,12.40
2017-09-10T02:52:26.233Z,12.40
2017-09-10T02:54:53.659Z,12.30
2017-09-10T02:57:21.080Z,12.30
2017-09-10T02:59:48.514Z,12.30
2017-09-10T03:02:15.932Z,12.30
2017-09-10T03:04:43.366Z,12.30
2017-09-10T03:07:10.795Z,12.40
2017-09-10T03:09:38.987Z,12.30
2017-09-10T03:12:06.408Z,12.40
2017-09-10T03:14:34.599Z,12.30
2017-09-10T03:17:02.783Z,12.30
2017-09-10T03:19:30.212Z,12.30
2017-09-10T03:21:57.640Z,12.30
2017-09-10T03:24:25.076Z,12.20
2017-09-10T03:26:52.495Z,12.10
2017-09-10T03:29:20.697Z,12.10
2017-09-10T03:31:48.115Z,12.10
2017-09-10T03:34:16.311Z,12.00
2017-09-10T03:36:43.742Z,12.00
2017-09-10T03:39:11.151Z,12.00
2017-09-10T03:41:38.587Z,12.00
2017-09-10T03:44:06.007Z,12.00
2017-09-10T03:46:33.433Z,12.00
2017-09-10T03:49:00.856Z,12.00
2017-09-10T03:51:28.287Z,12.00
2017-09-10T03:53:56.480Z,12.10
2017-09-10T03:56:23.913Z,12.10
2017-09-10T03:58:51.332Z,12.10
2017-09-10T04:01:19.744Z,12.20
2017-09-10T04:03:47.168Z,12.20
2017-09-10T04:06:14.611Z,12.20
2017-09-10T04:08:42.015Z,12.20
2017-09-10T04:11:09.443Z,12.20
2017-09-10T04:13:36.868Z,12.20
2017-09-10T04:16:04.299Z,12.30
2017-09-10T04:18:32.488Z,12.30
2017-09-10T04:20:59.920Z,12.30
2017-09-10T04:23:28.111Z,12.20
2017-09-10T04:25:56.304Z,12.20
2017-09-10T04:28:23.729Z,12.20
2017-09-10T04:30:51.923Z,12.10
2017-09-10T04:33:19.352Z,12.00
2017-09-10T04:35:47.556Z,12.10
2017-09-10T04:38:15.733Z,12.10
2017-09-10T04:40:43.155Z,12.10
2017-09-10T04:43:10.588Z,12.10
2017-09-10T04:45:38.017Z,12.10
2017-09-10T04:48:05.436Z,12.10
2017-09-10T04:50:33.628Z,12.10
2017-09-10T04:53:01.064Z,12.10
2017-09-10T04:55:29.257Z,12.10
2017-09-10T04:57:57.447Z,12.10
2017-09-10T05:00:24.867Z,12.10
2017-09-10T05:02:53.096Z,12.10
2017-09-10T05:05:20.523Z,12.00
2017-09-10T05:07:47.948Z,12.00
2017-09-10T05:10:16.137Z,12.00
2017-09-10T05:12:44.334Z,12.00
2017-09-10T05:15:11.748Z,12.00
2017-09-10T05:17:39.168Z,12.00
2017-09-10T05:20:06.601Z,11.90
2017-09-10T05:22:34.028Z,11.90
2017-09-10T05:25:02.216Z,11.90
2017-09-10T05:27:30.426Z,11.90
2017-09-10T05:29:57.844Z,11.90
2017-09-10T05:32:26.032Z,12.00
2017-09-10T05:34:53.455Z,11.90
2017-09-10T05:37:20.875Z,12.10
2017-09-10T05:39:48.304Z,12.10
2017-09-10T05:42:15.730Z,12.10
2017-09-10T05:44:43.153Z,12.20
2017-09-10T05:47:10.579Z,12.20
2017-09-10T05:49:38.004Z,12.20
2017-09-10T05:52:05.432Z,12.20
2017-09-10T05:54:32.860Z,12.20
2017-09-10T05:57:00.294Z,12.30
2017-09-10T05:59:27.731Z,12.30
2017-09-10T06:01:55.930Z,12.40
2017-09-10T06:04:24.127Z,12.50
2017-09-10T06:06:51.544Z,12.40
2017-09-10T06:09:19.759Z,12.60
2017-09-10T06:11:47.191Z,12.60
2017-09-10T06:14:14.615Z,12.70
2017-09-10T06:16:42.867Z,12.70
2017-09-10T06:19:10.304Z,12.70
2017-09-10T06:21:37.728Z,12.70
2017-09-10T06:24:05.931Z,12.70
2017-09-10T06:26:33.350Z,12.70
2017-09-10T06:29:01.540Z,12.70
2017-09-10T06:31:28.972Z,12.70
2017-09-10T06:33:57.163Z,12.80
2017-09-10T06:36:25.359Z,12.90
2017-09-10T06:38:52.806Z,12.90
2017-09-10T06:41:20.231Z,13.00
2017-09-10T06:43:48.469Z,13.10
2017-09-10T06:46:15.904Z,13.00
2017-09-10T06:48:43.324Z,13.10
2017-09-10T06:51:11.600Z,13.10
2017-09-10T06:53:39.792Z,13.00
2017-09-10T06:56:07.988Z,13.20
2017-09-10T06:58:35.424Z,13.10
2017-09-10T07:01:03.616Z,13.30
2017-09-10T07:03:31.040Z,13.30
2017-09-10T07:05:59.236Z,13.30
2017-09-10T07:08:26.660Z,13.30
2017-09-10T07:10:54.096Z,13.30
2017-09-10T07:13:21.516Z,13.30
2017-09-10T07:15:48.939Z,13.40
2017-09-10T07:18:18.152Z,13.60
2017-09-10T07:20:46.343Z,13.80
2017-09-10T07:23:13.768Z,13.80
2017-09-10T07:25:41.976Z,14.00
2017-09-10T07:28:09.407Z,14.00
2017-09-10T07:30:37.607Z,14.10
2017-09-10T07:33:05.040Z,14.10
2017-09-10T07:35:33.236Z,14.30
2017-09-10T07:38:00.664Z,14.30
2017-09-10T07:40:28.855Z,14.40
2017-09-10T07:42:57.058Z,14.40
2017-09-10T07:45:24.472Z,14.40
2017-09-10T07:47:52.676Z,14.70
2017-09-10T07:50:20.092Z,14.70
2017-09-10T07:52:48.288Z,15.00
2017-09-10T07:55:15.707Z,15.00
2017-09-10T07:57:43.136Z,15.10
2017-09-10T08:00:10.559Z,15.10
2017-09-10T08:02:38.747Z,15.10
2017-09-10T08:05:06.168Z,15.10
2017-09-10T08:07:34.369Z,15.00
2017-09-10T08:10:01.796Z,15.10
2017-09-10T08:12:29.235Z,15.20
2017-09-10T08:14:56.663Z,15.10
2017-09-10T08:17:24.091Z,15.20
2017-09-10T08:19:51.521Z,15.40
2017-09-10T08:22:18.963Z,15.50
2017-09-10T08:24:46.393Z,15.60
2017-09-10T08:27:13.823Z,15.70
2017-09-10T08:29:41.249Z,15.80
2017-09-10T08:32:08.673Z,15.90
2017-09-10T08:34:36.100Z,16.00
2017-09-10T08:37:03.519Z,16.10
2017-09-10T08:39:31.711Z,16.40
2017-09-10T08:41:59.900Z,16.70
2017-09-10T08:44:27.331Z,16.70
2017-09-10T08:46:55.516Z,17.50
2017-09-10T08:49:23.728Z,17.70
2017-09-10T08:51:51.148Z,17.70
2017-09-10T08:54:19.344Z,17.50
2017-09-10T08:56:46.769Z,17.40
2017-09-10T08:59:14.963Z,17.80
2017-09-10T09:01:42.389Z,17.70
2017-09-10T09:04:09.820Z,17.90
2017-09-10T09:06:37.256Z,17.80
2017-09-10T09:09:04.693Z,18.10
2017-09-10T09:11:32.116Z,18.60
2017-09-10T09:14:00.397Z,19.30
2017-09-10T09:16:28.597Z,19.60
2017-09-10T09:18:56.025Z,19.60
2017-09-10T09:21:24.220Z,20.00
2017-09-10T09:23:52.435Z,20.00
2017-09-10T09:26:19.861Z,20.00
2017-09-10T09:28:47.288Z,20.00
2017-09-10T09:31:15.511Z,20.00
2017-09-10T09:33:42.927Z,20.00
2017-09-10T09:36:11.119Z,20.20
2017-09-10T09:38:38.548Z,20.20
2017-09-10T09:41:05.990Z,20.10
2017-09-10T09:43:33.435Z,20.30
2017-09-10T09:46:00.922Z,20.50
2017-09-10T09:48:28.344Z,20.50
2017-09-10T09:50:55.811Z,20.70
2017-09-10T09:53:23.243Z,20.70
2017-09-10T09:55:50.682Z,20.70
2017-09-10T09:58:18.104Z,20.70
2017-09-10T10:00:45.527Z,20.70
2017-09-10T10:03:13.024Z,20.60
2017-09-10T10:05:42.316Z,20.20
2017-09-10T10:08:09.758Z,20.20
2017-09-10T10:10:37.189Z,20.20
2017-09-10T10:13:04.616Z,20.20
2017-09-10T10:15:32.084Z,20.10
2017-09-10T10:18:00.275Z,19.90
2017-09-10T10:20:28.804Z,19.90
2017-09-10T10:22:57.004Z,19.80
2017-09-10T10:25:25.200Z,19.50
2017-09-10T10:27:52.628Z,19.50
2017-09-10T10:30:20.812Z,19.00
2017-09-10T10:32:48.248Z,19.00
2017-09-10T10:35:15.667Z,19.00
2017-09-10T10:37:44.180Z,18.90
2017-09-10T10:40:12.373Z,18.60
2017-09-10T10:42:40.573Z,18.40
2017-09-10T10:45:07.995Z,18.40
2017-09-10T10:47:36.191Z,18.50
2017-09-10T10:50:03.715Z,18.40
2017-09-10T10:52:31.916Z,18.40
2017-09-10T10:54:59.463Z,18.40
2017-09-10T10:57:26.876Z,18.70
2017-09-10T10:59:54.300Z,19.20
2017-09-10T11:02:21.731Z,19.70
2017-09-10T11:04:49.924Z,20.20
2017-09-10T11:07:17.352Z,20.10
2017-09-10T11:09:45.629Z,20.80
2017-09-10T11:12:13.827Z,21.20
2017-09-10T11:14:42.025Z,21.30
2017-09-10T11:17:09.472Z,21.20
2017-09-10T11:19:36.920Z,21.60
2017-09-10T11:22:05.173Z,22.30
2017-09-10T11:24:33.377Z,22.50
2017-09-10T11:27:00.796Z,22.50
2017-09-10T11:29:28.996Z,22.80
2017-09-10T11:31:57.188Z,22.90
2017-09-10T11:34:24.625Z,22.90
2017-09-10T11:36:52.811Z,21.90
2017-09-10T11:39:21.260Z,21.80
2017-09-10T11:41:49.456Z,21.90
2017-09-10T11:44:16.880Z,21.90
2017-09-10T11:46:44.308Z,21.70
2017-09-10T11:49:11.744Z,21.50
2017-09-10T11:51:39.164Z,21.20
2017-09-10T11:54:07.369Z,20.30
2017-09-10T11:56:34.852Z,20.30
2017-09-10T11:59:02.285Z,20.60
2017-09-10T12:01:29.725Z,20.70
2017-09-10T12:03:57.159Z,20.80
2017-09-10T12:06:24.622Z,21.00
2017-09-10T12:08:52.076Z,21.10
2017-09-10T12:11:20.267Z,20.90
2017-09-10T12:13:48.467Z,20.70
2017-09-10T12:16:15.888Z,20.70
2017-09-10T12:18:44.084Z,20.30
2017-09-10T12:21:11.521Z,20.30
2017-09-10T12:23:39.788Z,20.40
2017-09-10T12:26:07.225Z,20.40
2017-09-10T12:28:34.659Z,20.40
2017-09-10T12:31:02.095Z,20.30
2017-09-10T12:33:29.516Z,20.20
2017-09-10T12:35:57.525Z,20.00
2017-09-10T12:38:24.944Z,20.00
2017-09-10T12:40:53.267Z,20.10
2017-09-10T12:43:20.688Z,20.10
2017-09-10T12:45:48.896Z,20.00
2017-09-10T12:48:16.329Z,20.00
2017-09-10T12:50:44.581Z,20.00
2017-09-10T12:53:11.999Z,20.00
2017-09-10T12:55:39.433Z,20.00
2017-09-10T12:58:06.860Z,20.00
2017-09-10T13:00:37.150Z,19.80
2017-09-10T13:03:04.564Z,19.70
2017-09-10T13:05:33.746Z,19.80
2017-09-10T13:08:01.978Z,19.80
2017-09-10T13:10:29.401Z,19.80
2017-09-10T13:13:02.927Z,19.50
2017-09-10T13:15:30.376Z,19.60
2017-09-10T13:17:57.795Z,19.50
2017-09-10T13:20:26.070Z,19.60
2017-09-10T13:22:54.255Z,19.80
2017-09-10T13:25:21.698Z,19.80
2017-09-10T13:27:49.940Z,19.60
2017-09-10T13:30:17.369Z,19.60
2017-09-10T13:32:44.824Z,19.60
2017-09-10T13:35:12.246Z,19.50
2017-09-10T13:37:39.686Z,19.50
2017-09-10T13:40:07.149Z,19.50
2017-09-10T13:42:35.349Z,19.60
2017-09-10T13:45:02.884Z,19.50
2017-09-10T13:47:31.095Z,19.60
2017-09-10T13:49:58.657Z,19.60
2017-09-10T13:52:26.081Z,19.60
2017-09-10T13:54:54.282Z,19.60
2017-09-10T13:57:21.725Z,19.60
2017-09-10T13:59:49.929Z,19.70
2017-09-10T14:02:17.657Z,19.70
2017-09-10T14:04:45.132Z,19.70
2017-09-10T14:07:13.326Z,19.50
2017-09-10T14:09:40.745Z,19.50
2017-09-10T14:12:08.957Z,19.60
2017-09-10T14:14:36.465Z,19.50
2017-09-10T14:17:04.664Z,19.40
2017-09-10T14:19:32.108Z,19.40
2017-09-10T14:22:02.308Z,19.50
2017-09-10T14:24:30.593Z,19.30
2017-09-10T14:26:58.789Z,19.30
2017-09-10T14:29:26.223Z,19.30
2017-09-10T14:31:54.403Z,19.10
2017-09-10T14:34:21.840Z,19.10
2017-09-10T14:36:49.261Z,19.10
2017-09-10T14:39:16.696Z,19.00
2017-09-10T14:41:44.128Z,19.10
2017-09-10T14:44:11.584Z,19.00
2017-09-10T14:46:39.851Z,18.80
2017-09-10T14:49:08.048Z,18.70
2017-09-10T14:51:36.308Z,18.70
2017-09-10T14:54:03.732Z,18.70
2017-09-10T14:56:31.164Z,18.60
2017-09-10T14:58:58.682Z,18.60
2017-09-10T15:01:26.873Z,18.50
2017-09-10T15:03:54.336Z,18.40
2017-09-10T15:06:21.781Z,18.30
2017-09-10T15:08:50.002Z,18.20
2017-09-10T15:11:17.497Z,18.20
2017-09-10T15:13:44.947Z,18.30
2017-09-10T15:16:12.366Z,18.20
2017-09-10T15:18:39.793Z,18.20
2017-09-10T15:21:07.241Z,18.10
2017-09-10T15:23:36.496Z,18.00
2017-09-10T15:26:04.000Z,18.00
2017-09-10T15:28:33.493Z,17.90
2017-09-10T15:31:00.950Z,18.00
2017-09-10T15:33:28.377Z,17.90
2017-09-10T15:35:55.808Z,17.90
2017-09-10T15:38:23.233Z,17.80
2017-09-10T15:40:51.452Z,17.80
2017-09-10T15:43:18.872Z,17.80
2017-09-10T15:45:46.311Z,17.80
2017-09-10T15:48:14.503Z,17.70
2017-09-10T15:50:41.932Z,17.60
2017-09-10T15:53:09.363Z,17.70
2017-09-10T15:55:36.828Z,17.60
2017-09-10T15:58:04.303Z,17.70
2017-09-10T16:00:32.512Z,17.60
2017-09-10T16:02:59.944Z,17.60
2017-09-10T16:05:28.145Z,17.60
2017-09-10T16:07:55.565Z,17.60
2017-09-10T16:10:23.012Z,17.60
2017-09-10T16:12:50.456Z,17.60
2017-09-10T16:15:17.906Z,17.60
2017-09-10T16:17:45.362Z,17.60
2017-09-10T16:20:12.779Z,17.60
2017-09-10T16:22:40.224Z,17.50
2017-09-10T16:25:08.413Z,17.50
2017-09-10T16:27:35.840Z,17.50
2017-09-10T16:30:04.037Z,17.50
2017-09-10T16:32:31.465Z,17.50
2017-09-10T16:34:58.923Z,17.50
2017-09-10T16:37:26.352Z,17.50
2017-09-10T16:39:53.782Z,17.50
2017-09-10T16:42:21.207Z,17.40
2017-09-10T16:44:49.394Z,17.40
2017-09-10T16:47:16.823Z,17.40
2017-09-10T16:49:44.264Z,17.40
2017-09-10T16:52:11.703Z,17.40
2017-09-10T16:54:39.132Z,17.40
2017-09-10T16:57:06.560Z,17.40
2017-09-10T16:59:34.009Z,17.30
2017-09-10T17:02:02.212Z,17.20
2017-09-10T17:04:30.463Z,17.20
2017-09-10T17:06:58.676Z,17.20
2017-09-10T17:09:26.103Z,17.20
2017-09-10T17:11:54.368Z,17.20
2017-09-10T17:14:22.564Z,17.20
2017-09-10T17:16:50.754Z,17.10
2017-09-10T17:19:18.178Z,17.10
2017-09-10T17:21:45.609Z,17.00
2017-09-10T17:24:13.048Z,17.00
2017-09-10T17:26:40.472Z,16.90
2017-09-10T17:29:07.899Z,16.80
2017-09-10T17:31:36.092Z,16.70
2017-09-10T17:34:04.289Z,16.60
2017-09-10T17:36:31.716Z,16.60
2017-09-10T17:38:59.915Z,16.60
2017-09-10T17:41:27.588Z,16.60
2017-09-10T17:43:55.011Z,16.50
2017-09-10T17:46:23.222Z,16.50
2017-09-10T17:48:50.653Z,16.40
2017-09-10T17:51:18.072Z,16.40
2017-09-10T17:53:45.534Z,16.30
2017-09-10T17:56:13.027Z,16.20
2017-09-10T17:58:40.456Z,16.20
2017-09-10T18:01:07.904Z,16.10
2017-09-10T18:03:35.332Z,16.00
2017-09-10T18:06:02.749Z,16.00
2017-09-10T18:08:30.984Z,15.80
2017-09-10T18:10:58.416Z,15.80
2017-09-10T18:13:26.009Z,15.70
2017-09-10T18:15:53.446Z,15.70
2017-09-10T18:18:20.869Z,15.60
2017-09-10T18:20:48.317Z,15.50
2017-09-10T18:23:16.491Z,15.20
2017-09-10T18:25:43.932Z,15.20
2017-09-10T18:28:13.154Z,15.10
2017-09-10T18:30:40.584Z,15.00
2017-09-10T18:33:09.536Z,15.00
2017-09-10T18:35:36.976Z,15.00
2017-09-10T18:38:04.395Z,14.90
2017-09-10T18:40:32.596Z,14.80
2017-09-10T18:43:00.034Z,14.80
2017-09-10T18:45:28.216Z,14.80
2017-09-10T18:47:55.644Z,14.80
2017-09-10T18:50:23.844Z,14.70
2017-09-10T18:52:52.048Z,14.70
2017-09-10T18:55:19.479Z,14.70
2017-09-10T18:57:46.907Z,14.70
2017-09-10T19:00:15.112Z,14.70
2017-09-10T19:02:42.536Z,14.70
2017-09-10T19:05:10.759Z,14.70
2017-09-10T19:07:38.183Z,14.70
2017-09-10T19:10:08.403Z,14.60
2017-09-10T19:12:36.621Z,14.40
2017-09-10T19:15:04.133Z,14.40
2017-09-10T19:17:31.580Z,14.40
2017-09-10T19:19:59.025Z,14.30
2017-09-10T19:22:26.452Z,14.30
2017-09-10T19:24:53.897Z,14.30
2017-09-10T19:27:21.332Z,14.20
2017-09-10T19:29:48.763Z,14.20
2017-09-10T19:32:16.199Z,14.10
2017-09-10T19:34:43.643Z,14.10
2017-09-10T19:37:11.080Z,14.10
2017-09-10T19:39:38.514Z,14.10
2017-09-10T19:42:06.724Z,14.10
2017-09-10T19:44:34.155Z,14.00
2017-09-10T19:47:01.584Z,14.10
2017-09-10T19:49:29.776Z,14.00
2017-09-10T19:51:57.980Z,13.90
2017-09-10T19:54:25.423Z,13.90
2017-09-10T19:56:53.615Z,13.90
2017-09-10T19:59:21.037Z,13.90
2017-09-10T20:01:48.469Z,13.90
2017-09-10T20:04:15.900Z,13.90
2017-09-10T20:06:43.351Z,13.90
2017-09-10T20:09:10.760Z,14.00
2017-09-10T20:11:38.963Z,13.90
2017-09-10T20:14:06.401Z,13.90
2017-09-10T20:16:33.832Z,13.70
2017-09-10T20:19:01.291Z,13.70
2017-09-10T20:21:29.495Z,13.50
2017-09-10T20:23:56.920Z,13.50
2017-09-10T20:26:24.345Z,13.40
2017-09-10T20:28:52.540Z,13.40
2017-09-10T20:31:19.969Z,13.30
2017-09-10T20:33:47.403Z,13.20
2017-09-10T20:36:14.838Z,13.10
2017-09-10T20:38:43.051Z,13.00
2017-09-10T20:41:10.476Z,13.00
2017-09-10T20:43:37.914Z,13.10
2017-09-10T20:46:06.101Z,13.10
2017-09-10T20:48:35.591Z,13.20
2017-09-10T20:51:03.789Z,13.10
2017-09-10T20:53:31.992Z,13.10
2017-09-10T20:55:59.437Z,13.10
2017-09-10T20:58:26.851Z,13.10
2017-09-10T21:00:55.061Z,13.20
2017-09-10T21:03:22.514Z,13.10
2017-09-10T21:05:49.941Z,13.10
2017-09-10T21:08:17.388Z,13.10
2017-09-10T21:10:44.812Z,13.00
2017-09-10T21:13:12.260Z,13.10
2017-09-10T21:15:39.696Z,13.10
2017-09-10T21:18:07.122Z,13.10
2017-09-10T21:20:35.329Z,13.10
2017-09-10T21:23:02.757Z,13.10
2017-09-10T21:25:30.959Z,13.20
2017-09-10T21:27:58.389Z,13.20
2017-09-10T21:30:26.597Z,13.30
2017-09-10T21:32:54.017Z,13.30
2017-09-10T21:35:22.216Z,13.40
2017-09-10T21:37:49.645Z,13.30
2017-09-10T21:40:17.850Z,13.30
2017-09-10T21:42:45.276Z,13.30
2017-09-10T21:45:13.480Z,13.10
2017-09-10T21:47:40.911Z,13.10
2017-09-10T21:50:09.115Z,13.20
2017-09-10T21:52:36.547Z,13.20
2017-09-10T21:55:04.748Z,13.30
2017-09-10T21:57:32.181Z,13.20
2017-09-10T22:00:00.399Z,13.30
2017-09-10T22:02:27.823Z,13.30
2017-09-10T22:04:56.007Z,13.30
2017-09-10T22:07:23.445Z,13.30
2017-09-10T22:09:51.635Z,13.30
2017-09-10T22:12:19.069Z,13.20
2017-09-10T22:14:47.261Z,13.10
2017-09-10T22:17:14.686Z,13.10
2017-09-10T22:19:42.148Z,13.10
2017-09-10T22:22:09.640Z,13.00
2017-09-10T22:24:37.068Z,13.00
2017-09-10T22:27:05.260Z,13.00
2017-09-10T22:29:33.457Z,12.90
2017-09-10T22:32:00.884Z,12.90
2017-09-10T22:34:29.080Z,12.90
2017-09-10T22:36:56.510Z,12.80
2017-09-10T22:39:24.704Z,12.90
2017-09-10T22:41:52.145Z,12.80
2017-09-10T22:44:20.340Z,12.70
2017-09-10T22:46:47.767Z,12.60
2017-09-10T22:49:15.235Z,12.70
2017-09-10T22:51:43.436Z,12.70
2017-09-10T22:54:10.860Z,12.60
2017-09-10T22:56:39.063Z,12.60
2017-09-10T22:59:06.497Z,12.50
2017-09-10T23:01:33.920Z,12.60
2017-09-10T23:04:01.353Z,12.60
2017-09-10T23:06:28.780Z,12.60
2017-09-10T23:08:56.208Z,12.50
2017-09-10T23:11:23.636Z,12.60
2017-09-10T23:13:51.074Z,12.50
2017-09-10T23:16:18.496Z,12.50
2017-09-10T23:18:46.685Z,12.60
2017-09-10T23:21:14.135Z,12.50
2017-09-10T23:23:42.339Z,12.60
2017-09-10T23:26:09.764Z,12.50
2017-09-10T23:28:37.205Z,12.50
2017-09-10T23:31:05.400Z,12.40
2017-09-10T23:33:33.608Z,12.50
2017-09-10T23:36:03.072Z,12.40
2017-09-10T23:38:31.266Z,12.40
2017-09-10T23:40:58.704Z,12.30
2017-09-10T23:43:26.900Z,12.30
2017-09-10T23:45:54.332Z,12.30
2017-09-10T23:48:22.543Z,12.40
2017-09-10T23:50:49.972Z,12.40
2017-09-10T23:53:17.400Z,12.30
2017-09-10T23:55:44.828Z,12.40
2017-09-10T23:58:12.247Z,12.40
